Impacts METAR Board
IDs:

KCVB - Castroville Muni, TX, US

Updated at: 0900 UTC 26 May 2019
Potential Impact None Slight Moderate High
Time 25/21Z 25/22Z 25/23Z 26/00Z 26/01Z 26/02Z 26/03Z 26/04Z 26/05Z 26/06Z 26/07Z 26/08Z 26/09Z
Temp92 91 90 87 84 81 79 77 76 76 76 75 75
Dewpt63 65 64 63 65 66 67 67 69 69 68 69 69
Altim29.97 29.96 29.94 29.97 29.96 29.98 30.00 30.02 30.03 30.02 30.02 30.01 30.00
VIS7 10 5 10 7 7 10 10 7 7 7 7 7
CIG-- -- -- -- -- -- -- 22 16 16 18 16 15
CoverSCTSCTSCTCLRCLRCLRSCTBKNOVCOVCOVCBKNOVC
FltCatVFRVFRMVFRVFRVFRVFRVFRMVFRMVFRMVFRMVFRMVFRMVFR
WX----HZ--------------------
WDir160130140130130130130140140150150150140
WSpd14 14 13 11 11 13 12 10 11 11 10 9 9
WGst19 22 21 20 -- 19 17 17 -- 16 18 14 14
Raw hourly METARs
KCVB 252055Z AUTO 16014G19KT 7SM SCT050 SCT065 SCT075 33/17 A2997 RMK AO2 T03320171
KCVB 252155Z AUTO 13014G22KT 10SM SCT050 33/18 A2996 RMK AO2 T03280181
KCVB 252255Z AUTO 14013G21KT 5SM HZ SCT048 32/18 A2994 RMK AO2 T03200175
KCVB 252355Z AUTO 13011G20KT 10SM CLR 31/17 A2997 RMK AO2 T03050172 10336 20305
KCVB 260055Z AUTO 13011KT 7SM CLR 29/19 A2996 RMK AO2 T02900185
KCVB 260155Z AUTO 13013G19KT 7SM CLR 27/19 A2998 RMK AO2 T02720190
KCVB 260255Z AUTO 13012G17KT 10SM SCT026 26/19 A3000 RMK AO2 T02600194
KCVB 260355Z AUTO 14010G17KT 10SM BKN022 25/20 A3002 RMK AO2 T02500197
KCVB 260455Z AUTO 14011KT 7SM OVC016 24/20 A3003 RMK AO2 T02430203
KCVB 260555Z AUTO 15011G16KT 7SM BKN016 OVC024 24/20 A3002 RMK AO2 T02430203 10305 20243 403360242
KCVB 260655Z AUTO 15010G18KT 7SM BKN018 OVC024 24/20 A3002 RMK AO2 T02420202
KCVB 260755Z AUTO 15009G14KT 7SM BKN016 BKN020 BKN031 24/20 A3001 RMK AO2 T02380203
KCVB 260855Z AUTO 14009G14KT 7SM BKN015 OVC035 24/21 A3000 RMK AO2 T02380207